Hlavní strana
METAR-TAF:

METAR-TAF

Letiště :

Roskilde, Dánsko

zeměpisná šířka: 55-35N, zeměpisná délka: 012-08E, výška: 44 m

Aktuální stav počasí

Zpráva byla vytvořena před 21 minutami, v 04:20 UTC
Západojihozápadní vítr 8 kt
Teplota 6°C
Vlhkost vzduchu 93%
Tlak 1000 hPa
Viditelnost: 4400 m
slabý déšť, kouřmo

METAR: EKRK 160420Z AUTO 25008KT 4400NDV -RA BR FEW002/// BKN006/// OVC008/// 06/05 Q1000

Čas: 05:41 (04:41 UTC)

Předpověď počasí

Zpráva byla vytvořena před 2 hodinami a 19 minutami, v 02:22 UTC
Předpověď platná od 16 v 03 UTC do 16 v 12 UTC
Západojihozápadní vítr 10 kt
Viditelnost: 6000 m
Oblačno až skoro zataženo ve výšce 1200 ft
Dočasný
od 16 v 03 UTC do 16 v 05 UTC
Viditelnost: 1500 m
Oblačno až skoro zataženo ve výšce 300 ft
déšť, mrholení, kouřmo
Dočasný
od 16 v 05 UTC do 16 v 12 UTC
Viditelnost: 4000 m
Oblačno až skoro zataženo ve výšce 800 ft
kouřmo, slabý déšť, mrholení

TAF: EKRK 160222Z 1603/1612 25010KT 6000 BKN012 TEMPO 1603/1605 1500 RADZ BR BKN003 TEMPO 1605/1612 4000 BR -RADZ BKN008

Stav a předpovědi počasí z více než 4 000 letišť (zprávy METAR a TAF).

Červené a žluté tečky na mapě představují dostupné meteorologické stanice.

Když kurzor umístíte na tečku, zobrazí se název stanice.

Pak kliknutím zobrazíte stav a předpověď počasí.

Chcete-li změnit mapu, kliknutím na zelené tlačítko se znaménkem +mapu přiblížíte, kliknutím na zelené tlačítko se znaménkem – mapu oddálíte a kliknutím na zelené šipky přejdete na sousední mapy.


METAR-TAF: